createdAt,value
2022-08-07T00:00:28.139Z,100.00
2022-08-07T00:03:09.000Z,100.00
2022-08-07T00:05:37.766Z,100.00
2022-08-07T00:08:07.847Z,100.00
2022-08-07T00:10:47.868Z,100.00
2022-08-07T00:13:24.084Z,100.00
2022-08-07T00:15:55.652Z,100.00
2022-08-07T00:18:27.016Z,100.00
2022-08-07T00:21:08.259Z,100.00
2022-08-07T00:23:52.216Z,100.00
2022-08-07T00:26:58.927Z,100.00
2022-08-07T00:29:08.900Z,100.00
2022-08-07T00:31:38.427Z,100.00
2022-08-07T00:34:10.029Z,100.00
2022-08-07T00:36:43.359Z,100.00
2022-08-07T00:39:16.849Z,100.00
2022-08-07T00:42:01.712Z,100.00
2022-08-07T00:44:35.326Z,100.00
2022-08-07T00:47:16.034Z,100.00
2022-08-07T00:50:21.368Z,100.00
2022-08-07T00:52:47.236Z,100.00
2022-08-07T00:55:17.325Z,100.00
2022-08-07T00:57:55.074Z,100.00
2022-08-07T01:00:24.743Z,100.00
2022-08-07T01:02:53.035Z,100.00
2022-08-07T01:05:24.649Z,100.00
2022-08-07T01:07:53.094Z,100.00
2022-08-07T01:10:23.838Z,100.00
2022-08-07T01:12:54.993Z,100.00
2022-08-07T01:15:35.692Z,100.00
2022-08-07T01:18:16.834Z,100.00
2022-08-07T01:20:57.242Z,100.00
2022-08-07T01:23:36.412Z,100.00
2022-08-07T01:26:51.967Z,100.00
2022-08-07T01:29:24.026Z,100.00
2022-08-07T01:31:59.400Z,100.00
2022-08-07T01:34:34.470Z,100.00
2022-08-07T01:37:22.868Z,100.00
2022-08-07T01:39:54.193Z,100.00
2022-08-07T01:42:39.639Z,100.00
2022-08-07T01:45:23.036Z,100.00
2022-08-07T01:48:20.647Z,100.00
2022-08-07T01:51:24.295Z,100.00
2022-08-07T01:54:11.583Z,100.00
2022-08-07T01:56:53.403Z,100.00
2022-08-07T02:00:13.415Z,100.00
2022-08-07T02:03:18.961Z,100.00
2022-08-07T02:05:59.898Z,100.00
2022-08-07T02:08:38.182Z,100.00
2022-08-07T02:11:09.095Z,100.00
2022-08-07T02:13:58.193Z,100.00
2022-08-07T02:16:33.239Z,100.00
2022-08-07T02:20:07.334Z,100.00
2022-08-07T02:21:58.535Z,100.00
2022-08-07T02:24:30.207Z,100.00
2022-08-07T02:27:03.436Z,100.00
2022-08-07T02:29:36.870Z,100.00
2022-08-07T02:32:17.509Z,100.00
2022-08-07T02:34:53.403Z,100.00
2022-08-07T02:37:25.184Z,100.00
2022-08-07T02:40:02.119Z,100.00
2022-08-07T02:42:43.046Z,100.00
2022-08-07T02:45:58.635Z,100.00
2022-08-07T02:48:03.846Z,100.00
2022-08-07T02:50:44.137Z,100.00
2022-08-07T02:53:18.228Z,100.00
2022-08-07T02:56:04.025Z,100.00
2022-08-07T02:58:35.412Z,100.00
2022-08-07T03:01:06.558Z,100.00
2022-08-07T03:03:50.431Z,100.00
2022-08-07T03:06:33.056Z,100.00
2022-08-07T03:09:05.693Z,100.00
2022-08-07T03:11:38.371Z,100.00
2022-08-07T03:14:08.965Z,100.00
2022-08-07T03:16:38.578Z,100.00
2022-08-07T03:19:08.357Z,100.00
2022-08-07T03:21:37.495Z,100.00
2022-08-07T03:24:18.132Z,100.00
2022-08-07T03:26:58.444Z,100.00
2022-08-07T03:29:46.094Z,100.00
2022-08-07T03:32:25.911Z,100.00
2022-08-07T03:35:18.112Z,100.00
2022-08-07T03:38:04.674Z,100.00
2022-08-07T03:40:36.198Z,100.00
2022-08-07T03:43:13.565Z,100.00
2022-08-07T03:45:48.723Z,100.00
2022-08-07T03:48:21.264Z,100.00
2022-08-07T03:50:56.024Z,100.00
2022-08-07T03:53:50.130Z,100.00
2022-08-07T03:56:33.338Z,100.00
2022-08-07T03:59:12.923Z,100.00
2022-08-07T04:01:46.065Z,100.00
2022-08-07T04:04:17.856Z,100.00
2022-08-07T04:06:51.016Z,100.00
2022-08-07T04:09:23.472Z,100.00
2022-08-07T04:12:23.849Z,100.00
2022-08-07T04:14:46.161Z,100.00
2022-08-07T04:17:20.951Z,100.00
2022-08-07T04:19:54.413Z,100.00
2022-08-07T04:22:29.162Z,100.00
2022-08-07T04:25:02.120Z,100.00
2022-08-07T04:27:35.851Z,100.00
2022-08-07T04:30:21.377Z,100.00
2022-08-07T04:33:14.042Z,100.00
2022-08-07T04:35:50.131Z,100.00
2022-08-07T04:38:21.103Z,100.00
2022-08-07T04:40:52.530Z,100.00
2022-08-07T04:44:10.373Z,100.00
2022-08-07T04:46:51.335Z,100.00
2022-08-07T04:49:40.106Z,100.00
2022-08-07T04:52:51.343Z,100.00
2022-08-07T04:58:11.156Z,100.00
2022-08-07T05:00:08.399Z,100.00
2022-08-07T05:02:16.656Z,100.00
2022-08-07T05:05:53.523Z,100.00
2022-08-07T05:08:59.074Z,100.00
2022-08-07T05:11:24.326Z,100.00
2022-08-07T05:14:51.873Z,100.00
2022-08-07T05:16:57.769Z,100.00
2022-08-07T05:19:45.127Z,100.00
2022-08-07T05:22:26.677Z,100.00
2022-08-07T05:24:59.753Z,100.00
2022-08-07T05:28:03.068Z,100.00
2022-08-07T05:30:30.148Z,100.00
2022-08-07T05:33:04.670Z,100.00
2022-08-07T05:35:42.141Z,100.00
2022-08-07T05:38:58.288Z,100.00
2022-08-07T05:41:12.155Z,100.00
2022-08-07T05:44:12.100Z,100.00
2022-08-07T05:46:40.939Z,100.00
2022-08-07T05:49:13.122Z,100.00
2022-08-07T05:51:47.194Z,100.00
2022-08-07T05:54:30.971Z,100.00
2022-08-07T05:57:11.427Z,100.00
2022-08-07T05:59:56.163Z,100.00
2022-08-07T06:02:41.876Z,100.00
2022-08-07T06:05:16.149Z,100.00
2022-08-07T06:08:09.094Z,100.00
2022-08-07T06:10:39.087Z,100.00
2022-08-07T06:13:13.671Z,100.00
2022-08-07T06:15:45.894Z,100.00
2022-08-07T06:18:22.695Z,100.00
2022-08-07T06:22:15.984Z,100.00
2022-08-07T06:24:38.439Z,100.00
2022-08-07T06:26:34.115Z,100.00
2022-08-07T06:29:06.450Z,100.00
2022-08-07T06:31:46.596Z,100.00
2022-08-07T06:34:20.465Z,100.00
2022-08-07T06:36:51.910Z,100.00
2022-08-07T06:40:16.344Z,100.00
2022-08-07T06:42:33.147Z,100.00
2022-08-07T06:45:18.342Z,98.91
2022-08-07T06:47:58.477Z,96.14
2022-08-07T06:50:33.678Z,97.09
2022-08-07T06:54:11.823Z,96.23
2022-08-07T06:56:01.164Z,96.32
2022-08-07T06:58:32.235Z,94.64
2022-08-07T07:01:12.424Z,94.80
2022-08-07T07:03:49.018Z,93.94
2022-08-07T07:06:26.203Z,93.59
2022-08-07T07:08:56.763Z,92.60
2022-08-07T07:12:08.282Z,92.37
2022-08-07T07:14:16.576Z,91.55
2022-08-07T07:16:50.687Z,89.64
2022-08-07T07:19:57.087Z,89.82
2022-08-07T07:22:39.810Z,90.31
2022-08-07T07:25:14.159Z,88.33
2022-08-07T07:28:02.957Z,86.87
2022-08-07T07:30:39.669Z,85.48
2022-08-07T07:33:55.016Z,86.75
2022-08-07T07:36:32.351Z,83.25
2022-08-07T07:39:04.008Z,81.34
2022-08-07T07:41:50.868Z,79.78
2022-08-07T07:44:27.706Z,78.01
2022-08-07T07:47:12.080Z,78.47
2022-08-07T07:50:36.370Z,78.50
2022-08-07T07:52:41.256Z,79.22
2022-08-07T07:55:10.976Z,74.59
2022-08-07T07:57:50.554Z,75.86
2022-08-07T08:00:29.660Z,73.63
2022-08-07T08:03:08.021Z,73.59
2022-08-07T08:05:42.851Z,73.38
2022-08-07T08:08:34.258Z,74.93
2022-08-07T08:11:08.159Z,69.89
2022-08-07T08:13:52.963Z,69.44
2022-08-07T08:16:29.788Z,69.25
2022-08-07T08:19:18.200Z,66.28
2022-08-07T08:22:11.138Z,65.80
2022-08-07T08:25:09.510Z,64.60
2022-08-07T08:28:03.722Z,61.55
2022-08-07T08:30:37.481Z,62.21
2022-08-07T08:33:17.107Z,57.79
2022-08-07T08:35:51.040Z,54.11
2022-08-07T08:38:29.260Z,53.01
2022-08-07T08:41:05.570Z,51.41
2022-08-07T08:43:55.770Z,50.00
2022-08-07T08:46:41.266Z,49.27
2022-08-07T08:49:19.287Z,47.36
2022-08-07T08:52:16.567Z,46.66
2022-08-07T08:55:04.750Z,45.03
2022-08-07T08:57:47.183Z,44.63
2022-08-07T09:00:17.092Z,43.89
2022-08-07T09:03:07.813Z,43.59
2022-08-07T09:05:58.632Z,44.15
2022-08-07T09:08:46.834Z,43.59
2022-08-07T09:11:54.532Z,43.07
2022-08-07T09:14:36.554Z,40.93
2022-08-07T09:17:22.922Z,40.81
2022-08-07T09:20:01.858Z,41.27
2022-08-07T09:24:30.858Z,40.94
2022-08-07T09:26:01.181Z,40.82
2022-08-07T09:30:05.931Z,39.70
2022-08-07T09:31:38.526Z,39.31
2022-08-07T09:34:18.310Z,36.84
2022-08-07T09:37:03.489Z,37.07
2022-08-07T09:39:55.249Z,37.98
2022-08-07T09:42:58.170Z,37.91
2022-08-07T09:47:23.497Z,37.87
2022-08-07T09:48:55.800Z,36.83
2022-08-07T09:52:10.341Z,36.88
2022-08-07T09:54:53.774Z,36.72
2022-08-07T09:57:55.922Z,37.41
2022-08-07T10:00:32.797Z,37.05
2022-08-07T10:04:06.762Z,37.08
2022-08-07T10:06:27.643Z,36.35
2022-08-07T10:09:15.336Z,38.52
2022-08-07T10:12:21.824Z,39.40
2022-08-07T10:15:15.481Z,39.64
2022-08-07T10:18:17.618Z,39.82
2022-08-07T10:21:14.889Z,41.26
2022-08-07T10:24:18.484Z,43.63
2022-08-07T10:27:10.326Z,44.53
2022-08-07T10:30:12.388Z,45.94
2022-08-07T10:33:14.903Z,46.36
2022-08-07T10:36:10.820Z,46.34
2022-08-07T10:39:05.787Z,46.52
2022-08-07T10:42:09.811Z,45.98
2022-08-07T10:45:14.842Z,45.57
2022-08-07T10:48:07.342Z,45.80
2022-08-07T10:50:44.862Z,45.81
2022-08-07T10:53:44.267Z,45.61
2022-08-07T10:56:37.122Z,45.43
2022-08-07T10:59:13.563Z,45.83
2022-08-07T11:02:12.269Z,46.47
2022-08-07T11:05:50.423Z,46.87
2022-08-07T11:08:41.462Z,45.06
2022-08-07T11:11:15.923Z,45.10
2022-08-07T11:14:57.093Z,44.08
2022-08-07T11:17:08.881Z,44.10
2022-08-07T11:19:52.264Z,43.75
2022-08-07T11:22:50.329Z,43.33
2022-08-07T11:25:26.399Z,43.20
2022-08-07T11:28:19.188Z,42.77
2022-08-07T11:31:24.739Z,41.99
2022-08-07T11:34:04.814Z,42.25
2022-08-07T11:37:00.417Z,42.59
2022-08-07T11:39:39.763Z,42.93
2022-08-07T11:42:48.630Z,43.01
2022-08-07T11:45:53.069Z,43.21
2022-08-07T11:49:50.267Z,42.95
2022-08-07T11:52:28.966Z,42.40
2022-08-07T11:56:25.980Z,43.33
2022-08-07T11:58:42.997Z,42.14
2022-08-07T12:01:25.191Z,41.90
2022-08-07T12:04:07.590Z,41.54
2022-08-07T12:07:09.001Z,41.84
2022-08-07T12:10:26.922Z,42.83
2022-08-07T12:13:11.332Z,43.71
2022-08-07T12:16:06.600Z,42.90
2022-08-07T12:19:08.153Z,43.65
2022-08-07T12:22:39.233Z,44.32
2022-08-07T12:26:05.612Z,47.23
2022-08-07T12:29:15.827Z,49.89
2022-08-07T12:32:04.076Z,51.86
2022-08-07T12:34:37.398Z,50.60
2022-08-07T12:37:23.188Z,49.13
2022-08-07T12:40:00.549Z,46.99
2022-08-07T12:42:32.323Z,46.79
2022-08-07T12:45:11.929Z,45.47
2022-08-07T12:48:03.249Z,44.77
2022-08-07T12:51:17.440Z,44.82
2022-08-07T12:54:37.839Z,44.66
2022-08-07T12:56:58.980Z,43.69
2022-08-07T12:59:53.796Z,43.82
2022-08-07T13:02:37.733Z,44.64
2022-08-07T13:06:03.857Z,45.19
2022-08-07T13:08:38.808Z,44.92
2022-08-07T13:11:19.439Z,44.90
2022-08-07T13:14:03.210Z,45.11
2022-08-07T13:17:03.323Z,45.82
2022-08-07T13:20:00.905Z,45.97
2022-08-07T13:22:38.128Z,45.91
2022-08-07T13:25:15.394Z,46.43
2022-08-07T13:28:13.052Z,46.42
2022-08-07T13:30:53.184Z,46.75
2022-08-07T13:34:31.307Z,46.70
2022-08-07T13:36:31.619Z,46.83
2022-08-07T13:40:33.210Z,48.28
2022-08-07T13:42:25.848Z,48.75
2022-08-07T13:45:20.762Z,48.38
2022-08-07T13:48:05.906Z,48.28
2022-08-07T13:50:45.087Z,48.17
2022-08-07T13:53:35.871Z,48.46
2022-08-07T13:56:35.720Z,47.81
2022-08-07T13:59:27.174Z,48.09
2022-08-07T14:02:12.906Z,48.77
2022-08-07T14:04:47.423Z,48.92
2022-08-07T14:07:23.006Z,49.15
2022-08-07T14:10:02.035Z,48.62
2022-08-07T14:12:57.786Z,48.69
2022-08-07T14:15:58.626Z,49.33
2022-08-07T14:18:44.259Z,49.13
2022-08-07T14:22:02.372Z,49.84
2022-08-07T14:24:34.108Z,50.30
2022-08-07T14:28:09.167Z,50.58
2022-08-07T14:30:07.878Z,51.18
2022-08-07T14:32:48.109Z,50.67
2022-08-07T14:35:44.538Z,51.06
2022-08-07T14:38:30.239Z,51.88
2022-08-07T14:41:05.236Z,52.51
2022-08-07T14:43:57.949Z,52.19
2022-08-07T14:46:30.669Z,52.78
2022-08-07T14:49:17.241Z,52.69
2022-08-07T14:52:04.865Z,53.23
2022-08-07T14:54:43.219Z,53.54
2022-08-07T14:57:18.739Z,53.83
2022-08-07T15:00:04.649Z,54.12
2022-08-07T15:02:39.203Z,53.86
2022-08-07T15:05:20.626Z,54.83
2022-08-07T15:07:53.381Z,54.80
2022-08-07T15:10:26.039Z,55.43
2022-08-07T15:13:05.704Z,56.81
2022-08-07T15:15:42.296Z,56.18
2022-08-07T15:18:33.618Z,56.47
2022-08-07T15:25:13.347Z,56.29
2022-08-07T15:27:04.039Z,57.80
2022-08-07T15:30:08.801Z,58.33
2022-08-07T15:32:39.538Z,59.16
2022-08-07T15:36:00.885Z,59.71
2022-08-07T15:41:24.033Z,60.94
2022-08-07T15:44:07.119Z,60.71
2022-08-07T15:46:51.702Z,61.50
2022-08-07T15:52:29.681Z,62.86
2022-08-07T15:55:09.088Z,63.15
2022-08-07T15:57:49.038Z,63.83
2022-08-07T16:00:31.296Z,64.27
2022-08-07T16:03:22.018Z,64.96
2022-08-07T16:06:01.309Z,66.13
2022-08-07T16:08:38.089Z,66.40
2022-08-07T16:11:42.251Z,67.81
2022-08-07T16:14:19.418Z,68.56
2022-08-07T16:17:14.852Z,69.58
2022-08-07T16:19:59.438Z,70.72
2022-08-07T16:22:47.910Z,71.71
2022-08-07T16:25:52.586Z,73.75
2022-08-07T16:30:06.976Z,75.36
2022-08-07T16:32:00.635Z,76.56
2022-08-07T16:34:55.383Z,77.68
2022-08-07T16:38:05.759Z,77.70
2022-08-07T16:41:02.317Z,79.39
2022-08-07T16:44:03.727Z,81.52
2022-08-07T16:47:07.804Z,82.68
2022-08-07T16:50:28.197Z,84.18
2022-08-07T16:54:01.174Z,85.98
2022-08-07T16:56:39.398Z,88.65
2022-08-07T16:59:18.599Z,90.38
2022-08-07T17:02:52.517Z,90.30
2022-08-07T17:06:28.309Z,91.43
2022-08-07T17:09:09.914Z,92.95
2022-08-07T17:12:04.434Z,95.68
2022-08-07T17:14:55.680Z,97.94
2022-08-07T17:17:27.133Z,99.99
2022-08-07T17:20:41.737Z,100.00
2022-08-07T17:23:19.444Z,100.00
2022-08-07T17:26:22.874Z,100.00
2022-08-07T17:28:52.612Z,100.00
2022-08-07T17:32:02.469Z,100.00
2022-08-07T17:35:40.033Z,100.00
2022-08-07T17:38:09.397Z,100.00
2022-08-07T17:40:58.760Z,100.00
2022-08-07T17:44:03.103Z,100.00
2022-08-07T17:46:56.136Z,100.00
2022-08-07T17:49:55.069Z,100.00
2022-08-07T17:52:41.406Z,100.00
2022-08-07T17:55:16.608Z,100.00
2022-08-07T17:58:09.285Z,100.00
2022-08-07T18:00:49.226Z,100.00
2022-08-07T18:04:07.299Z,100.00
2022-08-07T18:06:43.261Z,100.00
2022-08-07T18:10:06.725Z,100.00
2022-08-07T18:12:30.464Z,100.00
2022-08-07T18:15:32.746Z,100.00
2022-08-07T18:18:39.794Z,100.00
2022-08-07T18:21:53.575Z,100.00
2022-08-07T18:24:36.188Z,100.00
2022-08-07T18:28:35.597Z,100.00
2022-08-07T18:31:40.385Z,100.00
2022-08-07T18:34:53.250Z,100.00
2022-08-07T18:38:58.399Z,100.00
2022-08-07T18:41:45.435Z,100.00
2022-08-07T18:44:27.110Z,100.00
2022-08-07T18:47:02.022Z,100.00
2022-08-07T18:50:32.866Z,100.00
2022-08-07T18:53:04.615Z,100.00
2022-08-07T18:55:42.487Z,100.00
2022-08-07T18:58:33.024Z,100.00
2022-08-07T19:02:32.485Z,100.00
2022-08-07T19:05:10.690Z,100.00
2022-08-07T19:07:57.472Z,100.00
2022-08-07T19:10:51.585Z,100.00
2022-08-07T19:13:25.484Z,100.00
2022-08-07T19:17:04.223Z,100.00
2022-08-07T19:19:14.563Z,100.00
2022-08-07T19:22:11.359Z,100.00
2022-08-07T19:24:49.184Z,100.00
2022-08-07T19:28:57.639Z,100.00
2022-08-07T19:31:06.122Z,100.00
2022-08-07T19:33:33.373Z,100.00
2022-08-07T19:36:08.932Z,100.00
2022-08-07T19:38:53.426Z,100.00
2022-08-07T19:41:39.114Z,100.00
2022-08-07T19:44:21.841Z,100.00
2022-08-07T19:46:58.010Z,100.00
2022-08-07T19:49:57.418Z,100.00
2022-08-07T19:52:22.754Z,100.00
2022-08-07T19:54:56.645Z,100.00
2022-08-07T19:58:01.162Z,100.00
2022-08-07T20:00:29.127Z,100.00
2022-08-07T20:03:33.503Z,100.00
2022-08-07T20:06:00.829Z,100.00
2022-08-07T20:08:34.704Z,100.00
2022-08-07T20:12:01.028Z,100.00
2022-08-07T20:14:23.233Z,100.00
2022-08-07T20:17:06.591Z,100.00
2022-08-07T20:19:48.234Z,100.00
2022-08-07T20:22:34.434Z,100.00
2022-08-07T20:25:12.654Z,100.00
2022-08-07T20:28:11.315Z,100.00
2022-08-07T20:30:47.506Z,100.00
2022-08-07T20:33:37.781Z,100.00
2022-08-07T20:36:09.979Z,100.00
2022-08-07T20:38:53.678Z,100.00
2022-08-07T20:41:34.120Z,100.00
2022-08-07T20:44:27.696Z,100.00
2022-08-07T20:47:55.999Z,100.00
2022-08-07T20:50:20.929Z,100.00
2022-08-07T20:52:50.762Z,100.00
2022-08-07T20:55:24.003Z,100.00
2022-08-07T20:58:12.018Z,100.00
2022-08-07T21:00:56.320Z,100.00
2022-08-07T21:03:28.096Z,100.00
2022-08-07T21:06:22.342Z,100.00
2022-08-07T21:09:03.054Z,100.00
2022-08-07T21:11:50.295Z,100.00
2022-08-07T21:14:34.115Z,100.00
2022-08-07T21:18:02.637Z,100.00
2022-08-07T21:20:05.669Z,100.00
2022-08-07T21:22:53.497Z,100.00
2022-08-07T21:25:59.285Z,100.00
2022-08-07T21:28:48.516Z,100.00
2022-08-07T21:31:49.764Z,100.00
2022-08-07T21:34:26.812Z,100.00
2022-08-07T21:37:57.540Z,100.00
2022-08-07T21:40:36.110Z,100.00
2022-08-07T21:43:13.840Z,100.00
2022-08-07T21:46:09.179Z,100.00
2022-08-07T21:49:21.081Z,100.00
2022-08-07T21:52:33.193Z,100.00
2022-08-07T21:56:00.092Z,100.00
2022-08-07T21:58:47.165Z,100.00
2022-08-07T22:02:11.051Z,100.00
2022-08-07T22:04:53.479Z,100.00
2022-08-07T22:07:31.892Z,100.00
2022-08-07T22:10:21.204Z,100.00
2022-08-07T22:12:55.931Z,100.00
2022-08-07T22:16:38.583Z,100.00
2022-08-07T22:19:09.501Z,100.00
2022-08-07T22:22:01.916Z,100.00
2022-08-07T22:25:15.939Z,100.00
2022-08-07T22:28:30.867Z,100.00
2022-08-07T22:32:00.443Z,100.00
2022-08-07T22:34:49.509Z,100.00
2022-08-07T22:38:06.461Z,100.00
2022-08-07T22:41:20.002Z,100.00
2022-08-07T22:43:56.455Z,100.00
2022-08-07T22:47:06.108Z,100.00
2022-08-07T22:50:13.511Z,100.00
2022-08-07T22:54:07.736Z,100.00
2022-08-07T22:56:34.022Z,100.00
2022-08-07T22:59:43.673Z,100.00
2022-08-07T23:02:46.966Z,100.00
2022-08-07T23:06:14.842Z,100.00
2022-08-07T23:10:03.811Z,100.00
2022-08-07T23:12:34.516Z,100.00
2022-08-07T23:16:05.434Z,100.00
2022-08-07T23:22:40.380Z,100.00
2022-08-07T23:25:09.547Z,100.00
2022-08-07T23:28:22.718Z,100.00
2022-08-07T23:32:49.148Z,100.00
2022-08-07T23:34:37.978Z,100.00
2022-08-07T23:37:29.661Z,100.00
2022-08-07T23:40:07.518Z,100.00
2022-08-07T23:43:01.248Z,100.00
2022-08-07T23:46:02.872Z,100.00
2022-08-07T23:49:05.426Z,100.00
2022-08-07T23:53:06.104Z,100.00
2022-08-07T23:54:51.913Z,100.00
2022-08-07T23:57:30.666Z,100.00
